createdAt,value
2019-03-29T00:00:02.216Z,4.67
2019-03-29T00:05:05.362Z,4.63
2019-03-29T00:10:07.812Z,4.54
2019-03-29T00:15:05.277Z,4.66
2019-03-29T00:20:06.113Z,4.82
2019-03-29T00:25:04.164Z,4.89
2019-03-29T00:30:02.296Z,4.79
2019-03-29T00:35:04.054Z,4.61
2019-03-29T00:40:04.316Z,4.43
2019-03-29T00:45:02.166Z,4.32
2019-03-29T00:50:04.414Z,4.19
2019-03-29T00:55:04.261Z,4.18
2019-03-29T01:00:01.985Z,4.23
2019-03-29T01:05:04.231Z,4.16
2019-03-29T01:10:05.567Z,4.26
2019-03-29T01:15:03.251Z,4.32
2019-03-29T01:20:03.850Z,4.39
2019-03-29T01:25:04.557Z,4.39
2019-03-29T01:30:02.402Z,4.59
2019-03-29T01:35:03.549Z,4.73
2019-03-29T01:40:04.983Z,4.78
2019-03-29T01:45:02.243Z,4.77
2019-03-29T01:50:03.140Z,4.58
2019-03-29T01:55:02.819Z,4.39
2019-03-29T02:00:04.795Z,4.38
2019-03-29T02:05:02.582Z,4.44
2019-03-29T02:10:02.524Z,4.32
2019-03-29T02:15:02.450Z,4.23
2019-03-29T02:20:06.103Z,4.2
2019-03-29T02:25:06.620Z,4.19
2019-03-29T02:30:06.730Z,4.19
2019-03-29T02:35:05.464Z,4.13
2019-03-29T02:40:06.440Z,4.08
2019-03-29T02:45:04.413Z,4.07
2019-03-29T02:50:04.333Z,4.04
2019-03-29T02:55:05.377Z,3.95
2019-03-29T03:00:02.922Z,3.95
2019-03-29T03:05:04.033Z,3.98
2019-03-29T03:10:05.582Z,4.1
2019-03-29T03:15:03.387Z,4.2
2019-03-29T03:20:07.224Z,4.3
2019-03-29T03:25:03.834Z,4.33
2019-03-29T03:30:06.971Z,4.35
2019-03-29T03:35:07.026Z,4.34
2019-03-29T03:40:05.761Z,4.35
2019-03-29T03:45:03.764Z,4.39
2019-03-29T03:50:06.404Z,4.12
2019-03-29T03:55:06.850Z,3.75
2019-03-29T04:00:02.963Z,3.47
2019-03-29T04:05:07.478Z,3.25
2019-03-29T04:10:02.820Z,3.05
2019-03-29T04:15:05.769Z,3.06
2019-03-29T04:20:05.779Z,3.09
2019-03-29T04:25:06.240Z,3.14
2019-03-29T04:30:04.497Z,3.15
2019-03-29T04:35:05.267Z,2.98
2019-03-29T04:40:07.369Z,2.96
2019-03-29T04:45:02.170Z,3.04
2019-03-29T04:50:03.858Z,2.74
2019-03-29T04:55:04.497Z,2.74
2019-03-29T05:00:02.303Z,2.83
2019-03-29T05:05:03.965Z,3.08
2019-03-29T05:10:02.235Z,2.95
2019-03-29T05:15:03.055Z,3.05
2019-03-29T05:20:04.359Z,3.43
2019-03-29T05:25:04.880Z,3.25
2019-03-29T05:30:02.690Z,3.14
2019-03-29T05:35:04.500Z,3.04
2019-03-29T05:40:05.266Z,3.41
2019-03-29T05:45:02.087Z,3.29
2019-03-29T05:50:06.246Z,3.52
2019-03-29T05:55:06.132Z,3.29
2019-03-29T06:00:02.590Z,3.65
2019-03-29T06:05:02.823Z,3.57
2019-03-29T06:10:03.372Z,3.82
2019-03-29T06:15:02.152Z,3.63
2019-03-29T06:20:03.310Z,3.92
2019-03-29T06:25:03.459Z,3.93
2019-03-29T06:30:01.808Z,3.99
2019-03-29T06:35:03.736Z,4.38
2019-03-29T06:40:03.449Z,4.6
2019-03-29T06:45:03.056Z,5.06
2019-03-29T06:50:03.905Z,5.3
2019-03-29T06:55:02.633Z,5.42
2019-03-29T07:00:02.645Z,5.62
2019-03-29T07:05:03.583Z,5.92
2019-03-29T07:10:02.860Z,6.12
2019-03-29T07:15:05.811Z,6.31
2019-03-29T07:20:05.051Z,6.55
2019-03-29T07:25:04.921Z,6.75
2019-03-29T07:30:02.677Z,7.03
2019-03-29T07:35:03.929Z,7.03
2019-03-29T07:40:04.162Z,7.41
2019-03-29T07:45:03.097Z,8
2019-03-29T07:50:04.265Z,8.19
2019-03-29T07:55:05.678Z,8.58
2019-03-29T08:00:02.819Z,9.39
2019-03-29T08:05:03.903Z,9.55
2019-03-29T08:10:04.257Z,9.89
2019-03-29T08:15:02.668Z,10.31
2019-03-29T08:20:36.228Z,10.98
2019-03-29T08:25:06.191Z,11.76
2019-03-29T08:30:02.576Z,12.12
2019-03-29T08:35:05.908Z,12.36
2019-03-29T08:40:05.904Z,12.65
2019-03-29T08:45:04.454Z,12.2
2019-03-29T08:50:05.989Z,12.49
2019-03-29T08:55:05.939Z,12.52
2019-03-29T09:00:05.017Z,12.62
2019-03-29T09:05:05.419Z,12.77
2019-03-29T09:10:06.049Z,12.81
2019-03-29T09:15:03.751Z,13.15
2019-03-29T09:20:05.294Z,13.24
2019-03-29T09:25:03.876Z,13.39
2019-03-29T09:30:06.000Z,13.82
2019-03-29T09:35:07.128Z,14.14
2019-03-29T09:40:05.334Z,14.51
2019-03-29T09:45:05.534Z,14.42
2019-03-29T09:50:05.153Z,14.75
2019-03-29T09:55:04.106Z,14.88
2019-03-29T10:00:17.290Z,15.24
2019-03-29T10:05:04.626Z,14.82
2019-03-29T10:10:04.496Z,15.01
2019-03-29T10:15:03.372Z,15.18
2019-03-29T10:20:05.755Z,14.93
2019-03-29T10:25:18.247Z,15.16
2019-03-29T10:30:02.655Z,15.6
2019-03-29T10:35:05.182Z,15.45
2019-03-29T10:40:04.370Z,15.14
2019-03-29T10:45:02.225Z,15.14
2019-03-29T10:50:05.107Z,15.3
2019-03-29T10:55:02.809Z,15.28
2019-03-29T11:00:02.536Z,15.28
2019-03-29T11:05:04.026Z,15.4
2019-03-29T11:10:02.673Z,15.39
2019-03-29T11:15:02.533Z,15.43
2019-03-29T11:20:02.574Z,15.74
2019-03-29T11:25:03.316Z,15.68
2019-03-29T11:30:02.213Z,15.78
2019-03-29T11:35:02.573Z,16.21
2019-03-29T11:40:03.078Z,15.77
2019-03-29T11:45:02.118Z,15.85
2019-03-29T11:50:03.316Z,15.88
2019-03-29T11:55:02.913Z,16.19
2019-03-29T12:00:01.854Z,16.28
2019-03-29T12:05:04.921Z,15.8
2019-03-29T12:10:04.237Z,15.81
2019-03-29T12:15:02.698Z,16.17
2019-03-29T12:20:03.974Z,15.83
2019-03-29T12:25:04.319Z,15.82
2019-03-29T12:30:03.051Z,16.36
2019-03-29T12:35:05.038Z,16.01
2019-03-29T12:40:03.742Z,16.08
2019-03-29T12:45:02.577Z,16.35
2019-03-29T12:50:04.563Z,16.37
2019-03-29T12:55:03.881Z,16.2
2019-03-29T13:00:02.976Z,16.4
2019-03-29T13:05:04.056Z,16.1
2019-03-29T13:10:04.285Z,16.27
2019-03-29T13:15:03.984Z,15.84
2019-03-29T13:20:04.217Z,16.13
2019-03-29T13:25:07.496Z,16.49
2019-03-29T13:30:02.517Z,16.75
2019-03-29T13:35:04.139Z,16.81
2019-03-29T13:40:05.158Z,16.65
2019-03-29T13:45:03.021Z,16.61
2019-03-29T13:50:04.489Z,16.42
2019-03-29T13:55:05.039Z,16.6
2019-03-29T14:00:03.318Z,16.7
2019-03-29T14:05:04.623Z,16.63
2019-03-29T14:10:04.946Z,16.69
2019-03-29T14:15:03.301Z,16.74
2019-03-29T14:20:04.099Z,16.74
2019-03-29T14:25:05.798Z,16.88
2019-03-29T14:30:04.496Z,16.95
2019-03-29T14:35:04.290Z,16.87
2019-03-29T14:40:05.229Z,16.82
2019-03-29T14:45:02.649Z,16.91
2019-03-29T14:50:05.905Z,16.82
2019-03-29T14:55:04.757Z,16.9
2019-03-29T15:00:03.038Z,16.82
2019-03-29T15:05:06.030Z,16.82
2019-03-29T15:10:04.550Z,16.98
2019-03-29T15:15:06.196Z,16.93
2019-03-29T15:20:05.023Z,16.91
2019-03-29T15:25:04.731Z,16.9
2019-03-29T15:30:03.106Z,16.84
2019-03-29T15:35:04.622Z,16.87
2019-03-29T15:40:03.458Z,16.93
2019-03-29T15:45:02.504Z,16.76
2019-03-29T15:50:04.344Z,16.74
2019-03-29T15:55:04.699Z,16.78
2019-03-29T16:00:02.302Z,16.75
2019-03-29T16:05:04.142Z,16.82
2019-03-29T16:10:03.430Z,16.73
2019-03-29T16:15:04.426Z,16.74
2019-03-29T16:20:04.100Z,16.62
2019-03-29T16:25:05.747Z,16.65
2019-03-29T16:30:02.157Z,16.52
2019-03-29T16:35:04.327Z,16.55
2019-03-29T16:40:05.217Z,16.5
2019-03-29T16:45:01.751Z,16.46
2019-03-29T16:50:03.974Z,16.37
2019-03-29T16:55:12.775Z,16.36
2019-03-29T17:00:02.173Z,16.3
2019-03-29T17:05:04.435Z,16.24
2019-03-29T17:10:05.040Z,16.25
2019-03-29T17:15:02.726Z,16.18
2019-03-29T17:20:03.857Z,16.1
2019-03-29T17:25:04.954Z,15.96
2019-03-29T17:30:02.581Z,15.81
2019-03-29T17:35:04.142Z,15.62
2019-03-29T17:40:04.931Z,15.55
2019-03-29T17:45:02.527Z,15.31
2019-03-29T17:50:04.181Z,15.21
2019-03-29T17:55:04.754Z,14.94
2019-03-29T18:00:02.636Z,14.52
2019-03-29T18:05:02.895Z,14.47
2019-03-29T18:10:03.089Z,14.21
2019-03-29T18:15:02.739Z,14.22
2019-03-29T18:20:03.018Z,14.09
2019-03-29T18:25:04.189Z,13.79
2019-03-29T18:30:01.945Z,13.64
2019-03-29T18:35:04.711Z,13.59
2019-03-29T18:40:05.646Z,13.32
2019-03-29T18:45:03.041Z,12.99
2019-03-29T18:50:05.451Z,13.17
2019-03-29T18:55:05.318Z,13.18
2019-03-29T19:00:03.373Z,13.1
2019-03-29T19:05:05.837Z,13.08
2019-03-29T19:10:04.238Z,12.89
2019-03-29T19:15:02.866Z,12.79
2019-03-29T19:20:10.041Z,12.66
2019-03-29T19:25:04.944Z,12.64
2019-03-29T19:30:02.518Z,12.58
2019-03-29T19:35:04.380Z,12.52
2019-03-29T19:40:04.670Z,12.44
2019-03-29T19:45:03.061Z,12.34
2019-03-29T19:50:04.893Z,12.34
2019-03-29T19:55:04.441Z,12.15
2019-03-29T20:00:05.968Z,11.99
2019-03-29T20:05:05.166Z,11.81
2019-03-29T20:10:03.812Z,11.69
2019-03-29T20:15:02.686Z,11.57
2019-03-29T20:20:03.826Z,11.45
2019-03-29T20:25:04.831Z,11.3
2019-03-29T20:30:03.056Z,11.2
2019-03-29T20:35:04.222Z,11.15
2019-03-29T20:40:04.318Z,11
2019-03-29T20:45:03.191Z,10.9
2019-03-29T20:50:04.691Z,10.83
2019-03-29T20:55:04.208Z,10.79
2019-03-29T21:00:03.344Z,10.74
2019-03-29T21:05:04.992Z,10.82
2019-03-29T21:10:04.730Z,10.82
2019-03-29T21:15:03.030Z,10.72
2019-03-29T21:20:04.063Z,10.77
2019-03-29T21:25:06.498Z,10.69
2019-03-29T21:30:03.173Z,10.67
2019-03-29T21:35:04.196Z,10.42
2019-03-29T21:40:06.047Z,10.46
2019-03-29T21:45:02.535Z,10.43
2019-03-29T21:50:04.545Z,10.35
2019-03-29T21:55:05.679Z,10.31
2019-03-29T22:00:02.501Z,10.31
2019-03-29T22:05:04.757Z,10.27
2019-03-29T22:10:05.828Z,10.3
2019-03-29T22:15:02.673Z,10.28
2019-03-29T22:20:05.148Z,10.28
2019-03-29T22:25:05.606Z,10.26
2019-03-29T22:30:02.322Z,10.23
2019-03-29T22:35:05.183Z,10.25
2019-03-29T22:40:05.033Z,10.26
2019-03-29T22:45:02.595Z,10.24
2019-03-29T22:50:05.800Z,10.23
2019-03-29T22:55:04.980Z,10.19
2019-03-29T23:00:02.567Z,9.55
2019-03-29T23:05:06.666Z,9.22
2019-03-29T23:10:04.942Z,8.95
2019-03-29T23:15:01.818Z,8.2
2019-03-29T23:20:04.539Z,7.86
2019-03-29T23:25:05.453Z,7.59
2019-03-29T23:30:02.549Z,7.73
2019-03-29T23:35:05.040Z,8.06
2019-03-29T23:40:04.133Z,8.22
2019-03-29T23:45:02.458Z,7.87
2019-03-29T23:50:03.787Z,7.67
2019-03-29T23:55:04.919Z,7.54
